Dresden, Missouri
Current Conditions -  °F | °C
As of 11:53 AM on Friday 24 Oct 2014 (Local Time) from KDMO Reporting Station
Broken Clouds Broken Clouds  
Wind Chill: 68°   Ceiling: 4200
Heat Index: 68°   Visibility: 10mi
Dew Point: 57°   Wind: 12mph
Humidity: 68%   Direction: 200°SSW
Pressure: 30.08"   Gusts: NA
Location:  38.6763°N, 93.2612°W
Report Text: KDMO 241653Z AUTO 20010KT 10SM BKN042 20/14 A3008 RMK AO2 SLP183 T02000139
Loading
Personal Weather Stations






























Interactive Weather Map
Tropical Storm Tracking
New forecast layout! Learn more

10-Day Weather Forecast

Advertisements
Track Severe Weather on mobile